sensor_id;sensor_type;location;lat;lon;timestamp;temperature;humidity
67027;DHT22;53933;52.142;11.738;2022-08-24T00:00:21;24.00;60.30
67027;DHT22;53933;52.142;11.738;2022-08-24T00:02:48;23.90;60.40
67027;DHT22;53933;52.142;11.738;2022-08-24T00:05:17;23.80;60.70
67027;DHT22;53933;52.142;11.738;2022-08-24T00:07:47;23.80;60.90
67027;DHT22;53933;52.142;11.738;2022-08-24T00:10:14;23.80;60.90
67027;DHT22;53933;52.142;11.738;2022-08-24T00:12:40;23.80;60.80
67027;DHT22;53933;52.142;11.738;2022-08-24T00:15:09;23.80;60.90
67027;DHT22;53933;52.142;11.738;2022-08-24T00:17:36;23.80;60.80
67027;DHT22;53933;52.142;11.738;2022-08-24T00:20:04;23.80;60.70
67027;DHT22;53933;52.142;11.738;2022-08-24T00:22:32;23.80;60.70
67027;DHT22;53933;52.142;11.738;2022-08-24T00:24:59;23.80;60.60
67027;DHT22;53933;52.142;11.738;2022-08-24T00:27:25;23.80;60.50
67027;DHT22;53933;52.142;11.738;2022-08-24T00:29:52;23.80;60.80
67027;DHT22;53933;52.142;11.738;2022-08-24T00:32:20;23.80;60.80
67027;DHT22;53933;52.142;11.738;2022-08-24T00:34:46;23.80;61.10
67027;DHT22;53933;52.142;11.738;2022-08-24T00:37:13;23.80;61.10
67027;DHT22;53933;52.142;11.738;2022-08-24T00:39:41;23.80;61.20
67027;DHT22;53933;52.142;11.738;2022-08-24T00:42:07;23.80;61.20
67027;DHT22;53933;52.142;11.738;2022-08-24T00:44:34;23.70;61.20
67027;DHT22;53933;52.142;11.738;2022-08-24T00:47:04;23.80;61.50
67027;DHT22;53933;52.142;11.738;2022-08-24T00:49:34;23.70;61.50
67027;DHT22;53933;52.142;11.738;2022-08-24T00:52:05;23.70;61.60
67027;DHT22;53933;52.142;11.738;2022-08-24T00:54:39;23.70;61.80
67027;DHT22;53933;52.142;11.738;2022-08-24T00:57:09;23.70;61.90
67027;DHT22;53933;52.142;11.738;2022-08-24T00:59:40;23.70;61.90
67027;DHT22;53933;52.142;11.738;2022-08-24T01:02:11;23.60;62.00
67027;DHT22;53933;52.142;11.738;2022-08-24T01:04:43;23.60;62.40
67027;DHT22;53933;52.142;11.738;2022-08-24T01:07:11;23.70;62.50
67027;DHT22;53933;52.142;11.738;2022-08-24T01:09:37;23.70;62.50
67027;DHT22;53933;52.142;11.738;2022-08-24T01:12:04;23.70;62.30
67027;DHT22;53933;52.142;11.738;2022-08-24T01:14:32;23.70;62.20
67027;DHT22;53933;52.142;11.738;2022-08-24T01:16:59;23.70;61.90
67027;DHT22;53933;52.142;11.738;2022-08-24T01:19:47;23.70;61.70
67027;DHT22;53933;52.142;11.738;2022-08-24T01:22:29;23.70;61.80
67027;DHT22;53933;52.142;11.738;2022-08-24T01:24:59;23.70;61.70
67027;DHT22;53933;52.142;11.738;2022-08-24T01:27:26;23.60;61.80
67027;DHT22;53933;52.142;11.738;2022-08-24T01:29:54;23.60;62.00
67027;DHT22;53933;52.142;11.738;2022-08-24T01:32:22;23.60;62.10
67027;DHT22;53933;52.142;11.738;2022-08-24T01:34:49;23.60;62.40
67027;DHT22;53933;52.142;11.738;2022-08-24T01:37:16;23.60;62.20
67027;DHT22;53933;52.142;11.738;2022-08-24T01:39:44;23.50;62.10
67027;DHT22;53933;52.142;11.738;2022-08-24T01:42:13;23.50;62.40
67027;DHT22;53933;52.142;11.738;2022-08-24T01:44:42;23.50;62.30
67027;DHT22;53933;52.142;11.738;2022-08-24T01:47:11;23.50;62.50
67027;DHT22;53933;52.142;11.738;2022-08-24T01:49:40;23.40;62.80
67027;DHT22;53933;52.142;11.738;2022-08-24T01:52:09;23.40;62.90
67027;DHT22;53933;52.142;11.738;2022-08-24T01:54:37;23.30;62.90
67027;DHT22;53933;52.142;11.738;2022-08-24T01:57:05;23.30;63.10
67027;DHT22;53933;52.142;11.738;2022-08-24T01:59:33;23.30;63.20
67027;DHT22;53933;52.142;11.738;2022-08-24T02:02:02;23.30;63.20
67027;DHT22;53933;52.142;11.738;2022-08-24T02:04:29;23.30;63.20
67027;DHT22;53933;52.142;11.738;2022-08-24T02:06:58;23.30;63.10
67027;DHT22;53933;52.142;11.738;2022-08-24T02:09:24;23.30;63.10
67027;DHT22;53933;52.142;11.738;2022-08-24T02:11:51;23.30;63.40
67027;DHT22;53933;52.142;11.738;2022-08-24T02:14:18;23.30;63.20
67027;DHT22;53933;52.142;11.738;2022-08-24T02:16:46;23.40;63.10
67027;DHT22;53933;52.142;11.738;2022-08-24T02:19:13;23.40;62.80
67027;DHT22;53933;52.142;11.738;2022-08-24T02:21:40;23.40;62.70
67027;DHT22;53933;52.142;11.738;2022-08-24T02:24:07;23.30;62.40
67027;DHT22;53933;52.142;11.738;2022-08-24T02:26:33;23.30;62.50
67027;DHT22;53933;52.142;11.738;2022-08-24T02:29:00;23.20;62.70
67027;DHT22;53933;52.142;11.738;2022-08-24T02:31:27;23.20;62.70
67027;DHT22;53933;52.142;11.738;2022-08-24T02:33:55;23.20;62.80
67027;DHT22;53933;52.142;11.738;2022-08-24T02:36:21;23.20;62.90
67027;DHT22;53933;52.142;11.738;2022-08-24T02:38:48;23.10;62.60
67027;DHT22;53933;52.142;11.738;2022-08-24T02:41:15;23.10;62.60
67027;DHT22;53933;52.142;11.738;2022-08-24T02:43:42;23.10;63.10
67027;DHT22;53933;52.142;11.738;2022-08-24T02:46:16;23.10;63.10
67027;DHT22;53933;52.142;11.738;2022-08-24T02:48:43;23.00;63.30
67027;DHT22;53933;52.142;11.738;2022-08-24T02:51:17;23.00;63.50
67027;DHT22;53933;52.142;11.738;2022-08-24T02:53:44;23.00;63.40
67027;DHT22;53933;52.142;11.738;2022-08-24T02:56:11;23.00;63.50
67027;DHT22;53933;52.142;11.738;2022-08-24T02:58:38;23.00;63.50
67027;DHT22;53933;52.142;11.738;2022-08-24T03:01:04;23.00;63.60
67027;DHT22;53933;52.142;11.738;2022-08-24T03:03:31;23.00;63.50
67027;DHT22;53933;52.142;11.738;2022-08-24T03:05:58;23.00;63.60
67027;DHT22;53933;52.142;11.738;2022-08-24T03:08:26;23.00;63.90
67027;DHT22;53933;52.142;11.738;2022-08-24T03:10:52;22.90;64.00
67027;DHT22;53933;52.142;11.738;2022-08-24T03:13:19;22.90;64.00
67027;DHT22;53933;52.142;11.738;2022-08-24T03:15:46;22.90;64.30
67027;DHT22;53933;52.142;11.738;2022-08-24T03:18:12;22.90;64.20
67027;DHT22;53933;52.142;11.738;2022-08-24T03:20:39;23.00;63.90
67027;DHT22;53933;52.142;11.738;2022-08-24T03:23:05;22.90;63.90
67027;DHT22;53933;52.142;11.738;2022-08-24T03:25:33;23.00;63.90
67027;DHT22;53933;52.142;11.738;2022-08-24T03:28:00;22.90;63.90
67027;DHT22;53933;52.142;11.738;2022-08-24T03:30:27;22.90;64.00
67027;DHT22;53933;52.142;11.738;2022-08-24T03:32:54;22.90;63.80
67027;DHT22;53933;52.142;11.738;2022-08-24T03:35:20;22.90;63.90
67027;DHT22;53933;52.142;11.738;2022-08-24T03:37:47;22.90;63.50
67027;DHT22;53933;52.142;11.738;2022-08-24T03:40:14;22.80;63.80
67027;DHT22;53933;52.142;11.738;2022-08-24T03:42:42;22.80;64.00
67027;DHT22;53933;52.142;11.738;2022-08-24T03:45:09;22.80;64.30
67027;DHT22;53933;52.142;11.738;2022-08-24T03:47:36;22.70;64.70
67027;DHT22;53933;52.142;11.738;2022-08-24T03:50:04;22.80;64.60
67027;DHT22;53933;52.142;11.738;2022-08-24T03:52:31;22.80;64.70
67027;DHT22;53933;52.142;11.738;2022-08-24T03:54:58;22.80;64.70
67027;DHT22;53933;52.142;11.738;2022-08-24T03:57:24;22.80;64.40
67027;DHT22;53933;52.142;11.738;2022-08-24T03:59:52;22.80;64.30
67027;DHT22;53933;52.142;11.738;2022-08-24T04:02:19;22.80;64.40
67027;DHT22;53933;52.142;11.738;2022-08-24T04:04:45;22.80;64.20
67027;DHT22;53933;52.142;11.738;2022-08-24T04:07:12;22.90;64.40
67027;DHT22;53933;52.142;11.738;2022-08-24T04:09:38;22.90;64.50
67027;DHT22;53933;52.142;11.738;2022-08-24T04:12:05;22.90;64.70
67027;DHT22;53933;52.142;11.738;2022-08-24T04:14:32;22.80;64.70
67027;DHT22;53933;52.142;11.738;2022-08-24T04:17:00;22.80;64.70
67027;DHT22;53933;52.142;11.738;2022-08-24T04:19:27;22.80;65.00
67027;DHT22;53933;52.142;11.738;2022-08-24T04:21:54;22.80;64.90
67027;DHT22;53933;52.142;11.738;2022-08-24T04:24:21;22.80;64.80
67027;DHT22;53933;52.142;11.738;2022-08-24T04:26:48;22.80;64.90
67027;DHT22;53933;52.142;11.738;2022-08-24T04:29:17;22.80;64.70
67027;DHT22;53933;52.142;11.738;2022-08-24T04:31:45;22.80;65.10
67027;DHT22;53933;52.142;11.738;2022-08-24T04:34:14;22.70;65.20
67027;DHT22;53933;52.142;11.738;2022-08-24T04:36:43;22.80;64.90
67027;DHT22;53933;52.142;11.738;2022-08-24T04:39:10;22.90;65.20
67027;DHT22;53933;52.142;11.738;2022-08-24T04:41:37;23.00;64.90
67027;DHT22;53933;52.142;11.738;2022-08-24T04:44:04;23.10;64.70
67027;DHT22;53933;52.142;11.738;2022-08-24T04:46:31;23.30;63.70
67027;DHT22;53933;52.142;11.738;2022-08-24T04:48:58;23.50;63.20
67027;DHT22;53933;52.142;11.738;2022-08-24T04:51:26;23.70;63.00
67027;DHT22;53933;52.142;11.738;2022-08-24T04:53:52;23.80;62.70
67027;DHT22;53933;52.142;11.738;2022-08-24T04:56:21;23.90;62.40
67027;DHT22;53933;52.142;11.738;2022-08-24T04:58:48;24.10;61.40
67027;DHT22;53933;52.142;11.738;2022-08-24T05:01:18;24.10;61.50
67027;DHT22;53933;52.142;11.738;2022-08-24T05:03:46;24.10;61.40
67027;DHT22;53933;52.142;11.738;2022-08-24T05:06:13;24.20;61.30
67027;DHT22;53933;52.142;11.738;2022-08-24T05:08:42;24.30;60.70
67027;DHT22;53933;52.142;11.738;2022-08-24T05:11:11;24.40;60.60
67027;DHT22;53933;52.142;11.738;2022-08-24T05:13:39;24.50;60.60
67027;DHT22;53933;52.142;11.738;2022-08-24T05:16:06;24.70;60.30
67027;DHT22;53933;52.142;11.738;2022-08-24T05:18:33;24.90;59.90
67027;DHT22;53933;52.142;11.738;2022-08-24T05:21:00;25.00;59.70
67027;DHT22;53933;52.142;11.738;2022-08-24T05:23:27;24.50;59.40
67027;DHT22;53933;52.142;11.738;2022-08-24T05:26:04;23.80;61.00
67027;DHT22;53933;52.142;11.738;2022-08-24T05:28:31;23.50;62.50
67027;DHT22;53933;52.142;11.738;2022-08-24T05:31:05;23.30;63.30
67027;DHT22;53933;52.142;11.738;2022-08-24T05:33:32;23.30;63.50
67027;DHT22;53933;52.142;11.738;2022-08-24T05:35:58;23.60;63.10
67027;DHT22;53933;52.142;11.738;2022-08-24T05:38:25;23.60;62.90
67027;DHT22;53933;52.142;11.738;2022-08-24T05:40:52;23.70;63.10
67027;DHT22;53933;52.142;11.738;2022-08-24T05:43:20;24.00;62.50
67027;DHT22;53933;52.142;11.738;2022-08-24T05:45:46;24.20;62.00
67027;DHT22;53933;52.142;11.738;2022-08-24T05:48:13;24.50;62.30
67027;DHT22;53933;52.142;11.738;2022-08-24T05:50:39;24.70;60.90
67027;DHT22;53933;52.142;11.738;2022-08-24T05:53:06;24.80;60.40
67027;DHT22;53933;52.142;11.738;2022-08-24T05:55:32;25.00;60.10
67027;DHT22;53933;52.142;11.738;2022-08-24T05:58:02;25.20;60.00
67027;DHT22;53933;52.142;11.738;2022-08-24T06:00:30;25.40;63.10
67027;DHT22;53933;52.142;11.738;2022-08-24T06:02:57;25.50;62.40
67027;DHT22;53933;52.142;11.738;2022-08-24T06:05:24;25.60;62.00
67027;DHT22;53933;52.142;11.738;2022-08-24T06:07:51;25.70;61.90
67027;DHT22;53933;52.142;11.738;2022-08-24T06:10:18;26.00;60.90
67027;DHT22;53933;52.142;11.738;2022-08-24T06:12:45;26.20;59.90
67027;DHT22;53933;52.142;11.738;2022-08-24T06:15:13;26.10;60.10
67027;DHT22;53933;52.142;11.738;2022-08-24T06:17:41;26.00;60.10
67027;DHT22;53933;52.142;11.738;2022-08-24T06:20:08;26.00;60.40
67027;DHT22;53933;52.142;11.738;2022-08-24T06:22:35;26.10;60.60
67027;DHT22;53933;52.142;11.738;2022-08-24T06:25:03;26.10;60.40
67027;DHT22;53933;52.142;11.738;2022-08-24T06:27:50;26.20;60.50
67027;DHT22;53933;52.142;11.738;2022-08-24T06:30:17;26.30;60.10
67027;DHT22;53933;52.142;11.738;2022-08-24T06:32:45;26.50;60.00
67027;DHT22;53933;52.142;11.738;2022-08-24T06:35:12;26.70;59.90
67027;DHT22;53933;52.142;11.738;2022-08-24T06:37:38;26.70;59.90
67027;DHT22;53933;52.142;11.738;2022-08-24T06:40:06;26.70;60.00
67027;DHT22;53933;52.142;11.738;2022-08-24T06:42:32;26.90;59.80
67027;DHT22;53933;52.142;11.738;2022-08-24T06:44:59;27.10;59.50
67027;DHT22;53933;52.142;11.738;2022-08-24T06:47:27;27.30;59.10
67027;DHT22;53933;52.142;11.738;2022-08-24T06:49:57;27.50;58.70
67027;DHT22;53933;52.142;11.738;2022-08-24T06:52:23;27.70;58.50
67027;DHT22;53933;52.142;11.738;2022-08-24T06:54:51;27.80;58.20
67027;DHT22;53933;52.142;11.738;2022-08-24T06:57:17;28.00;57.90
67027;DHT22;53933;52.142;11.738;2022-08-24T06:59:44;28.10;57.60
67027;DHT22;53933;52.142;11.738;2022-08-24T07:02:11;28.20;57.50
67027;DHT22;53933;52.142;11.738;2022-08-24T07:04:40;28.30;57.30
67027;DHT22;53933;52.142;11.738;2022-08-24T07:07:09;28.40;57.00
67027;DHT22;53933;52.142;11.738;2022-08-24T07:09:35;28.50;57.10
67027;DHT22;53933;52.142;11.738;2022-08-24T07:12:02;28.60;57.10
67027;DHT22;53933;52.142;11.738;2022-08-24T07:14:29;28.70;57.00
67027;DHT22;53933;52.142;11.738;2022-08-24T07:16:56;28.80;57.00
67027;DHT22;53933;52.142;11.738;2022-08-24T07:19:23;28.80;57.00
67027;DHT22;53933;52.142;11.738;2022-08-24T07:21:49;28.80;56.90
67027;DHT22;53933;52.142;11.738;2022-08-24T07:24:17;28.80;56.90
67027;DHT22;53933;52.142;11.738;2022-08-24T07:26:44;28.90;56.70
67027;DHT22;53933;52.142;11.738;2022-08-24T07:29:12;29.00;56.30
67027;DHT22;53933;52.142;11.738;2022-08-24T07:31:42;29.10;56.10
67027;DHT22;53933;52.142;11.738;2022-08-24T07:34:09;29.20;56.10
67027;DHT22;53933;52.142;11.738;2022-08-24T07:36:37;29.20;56.10
67027;DHT22;53933;52.142;11.738;2022-08-24T07:39:05;29.20;56.00
67027;DHT22;53933;52.142;11.738;2022-08-24T07:41:37;29.30;56.00
67027;DHT22;53933;52.142;11.738;2022-08-24T07:44:04;29.40;55.90
67027;DHT22;53933;52.142;11.738;2022-08-24T07:46:31;29.40;55.80
67027;DHT22;53933;52.142;11.738;2022-08-24T07:48:57;29.40;55.70
67027;DHT22;53933;52.142;11.738;2022-08-24T07:51:25;29.50;55.80
67027;DHT22;53933;52.142;11.738;2022-08-24T07:53:52;29.50;55.70
67027;DHT22;53933;52.142;11.738;2022-08-24T07:56:19;29.60;55.60
67027;DHT22;53933;52.142;11.738;2022-08-24T07:58:47;29.60;55.50
67027;DHT22;53933;52.142;11.738;2022-08-24T08:01:14;29.70;55.50
67027;DHT22;53933;52.142;11.738;2022-08-24T08:03:42;29.80;55.10
67027;DHT22;53933;52.142;11.738;2022-08-24T08:06:09;29.90;55.00
67027;DHT22;53933;52.142;11.738;2022-08-24T08:08:37;30.00;54.90
67027;DHT22;53933;52.142;11.738;2022-08-24T08:11:05;30.00;54.10
67027;DHT22;53933;52.142;11.738;2022-08-24T08:13:32;30.20;54.10
67027;DHT22;53933;52.142;11.738;2022-08-24T08:16:02;30.30;53.80
67027;DHT22;53933;52.142;11.738;2022-08-24T08:18:30;30.40;53.50
67027;DHT22;53933;52.142;11.738;2022-08-24T08:20:56;30.50;53.30
67027;DHT22;53933;52.142;11.738;2022-08-24T08:23:23;30.50;52.80
67027;DHT22;53933;52.142;11.738;2022-08-24T08:26:14;30.40;52.90
67027;DHT22;53933;52.142;11.738;2022-08-24T08:28:41;30.40;52.90
67027;DHT22;53933;52.142;11.738;2022-08-24T08:31:09;30.40;52.90
67027;DHT22;53933;52.142;11.738;2022-08-24T08:33:36;30.50;52.70
67027;DHT22;53933;52.142;11.738;2022-08-24T08:36:06;30.50;52.50
67027;DHT22;53933;52.142;11.738;2022-08-24T08:38:34;30.70;52.30
67027;DHT22;53933;52.142;11.738;2022-08-24T08:41:12;30.80;52.10
67027;DHT22;53933;52.142;11.738;2022-08-24T08:43:49;30.80;52.10
67027;DHT22;53933;52.142;11.738;2022-08-24T08:46:32;30.70;52.10
67027;DHT22;53933;52.142;11.738;2022-08-24T08:49:18;30.70;52.20
67027;DHT22;53933;52.142;11.738;2022-08-24T08:55:22;31.00;51.80
67027;DHT22;53933;52.142;11.738;2022-08-24T08:57:55;31.10;51.70
67027;DHT22;53933;52.142;11.738;2022-08-24T09:00:26;31.00;51.70
67027;DHT22;53933;52.142;11.738;2022-08-24T09:06:23;31.20;51.20
67027;DHT22;53933;52.142;11.738;2022-08-24T09:09:10;31.50;50.80
67027;DHT22;53933;52.142;11.738;2022-08-24T09:11:50;31.40;50.60
67027;DHT22;53933;52.142;11.738;2022-08-24T09:14:41;31.30;50.70
67027;DHT22;53933;52.142;11.738;2022-08-24T09:17:22;31.20;50.90
67027;DHT22;53933;52.142;11.738;2022-08-24T09:20:10;31.40;50.90
67027;DHT22;53933;52.142;11.738;2022-08-24T09:22:41;31.60;50.30
67027;DHT22;53933;52.142;11.738;2022-08-24T09:25:22;31.90;49.50
67027;DHT22;53933;52.142;11.738;2022-08-24T09:28:10;32.20;49.20
67027;DHT22;53933;52.142;11.738;2022-08-24T09:33:34;32.60;47.80
67027;DHT22;53933;52.142;11.738;2022-08-24T09:36:10;32.90;47.20
67027;DHT22;53933;52.142;11.738;2022-08-24T09:38:55;33.00;47.00
67027;DHT22;53933;52.142;11.738;2022-08-24T09:41:44;33.00;47.00
67027;DHT22;53933;52.142;11.738;2022-08-24T09:44:30;33.30;46.70
67027;DHT22;53933;52.142;11.738;2022-08-24T09:47:18;33.40;46.40
67027;DHT22;53933;52.142;11.738;2022-08-24T09:52:48;33.40;46.40
67027;DHT22;53933;52.142;11.738;2022-08-24T09:58:31;33.30;46.20
67027;DHT22;53933;52.142;11.738;2022-08-24T10:01:07;33.60;46.10
67027;DHT22;53933;52.142;11.738;2022-08-24T10:03:52;33.70;45.60
67027;DHT22;53933;52.142;11.738;2022-08-24T10:06:27;33.70;45.50
67027;DHT22;53933;52.142;11.738;2022-08-24T10:09:12;33.80;45.50
67027;DHT22;53933;52.142;11.738;2022-08-24T10:11:49;33.80;45.30
67027;DHT22;53933;52.142;11.738;2022-08-24T10:14:27;33.90;45.00
67027;DHT22;53933;52.142;11.738;2022-08-24T10:16:59;34.10;44.80
67027;DHT22;53933;52.142;11.738;2022-08-24T10:19:45;34.20;44.50
67027;DHT22;53933;52.142;11.738;2022-08-24T10:22:19;34.00;44.70
67027;DHT22;53933;52.142;11.738;2022-08-24T10:25:02;34.10;44.70
67027;DHT22;53933;52.142;11.738;2022-08-24T10:27:49;34.00;44.70
67027;DHT22;53933;52.142;11.738;2022-08-24T10:33:23;34.20;44.20
67027;DHT22;53933;52.142;11.738;2022-08-24T10:38:56;34.20;44.20
67027;DHT22;53933;52.142;11.738;2022-08-24T10:45:33;33.80;44.80
67027;DHT22;53933;52.142;11.738;2022-08-24T10:48:25;33.70;44.90
67027;DHT22;53933;52.142;11.738;2022-08-24T10:50:56;33.70;44.70
67027;DHT22;53933;52.142;11.738;2022-08-24T10:53:26;33.80;44.40
67027;DHT22;53933;52.142;11.738;2022-08-24T10:56:03;33.80;43.80
67027;DHT22;53933;52.142;11.738;2022-08-24T10:58:51;33.70;43.90
67027;DHT22;53933;52.142;11.738;2022-08-24T11:01:27;33.70;43.50
67027;DHT22;53933;52.142;11.738;2022-08-24T11:03:58;33.50;43.60
67027;DHT22;53933;52.142;11.738;2022-08-24T11:06:28;33.20;44.00
67027;DHT22;53933;52.142;11.738;2022-08-24T11:08:59;33.10;43.40
67027;DHT22;53933;52.142;11.738;2022-08-24T11:11:30;32.80;44.00
67027;DHT22;53933;52.142;11.738;2022-08-24T11:13:58;32.60;45.00
67027;DHT22;53933;52.142;11.738;2022-08-24T11:16:31;32.40;46.10
67027;DHT22;53933;52.142;11.738;2022-08-24T11:18:59;32.10;46.00
67027;DHT22;53933;52.142;11.738;2022-08-24T11:21:42;31.90;46.60
67027;DHT22;53933;52.142;11.738;2022-08-24T11:24:22;31.80;46.50
67027;DHT22;53933;52.142;11.738;2022-08-24T11:26:52;31.70;46.30
67027;DHT22;53933;52.142;11.738;2022-08-24T11:29:21;31.60;45.60
67027;DHT22;53933;52.142;11.738;2022-08-24T11:31:50;31.40;46.70
67027;DHT22;53933;52.142;11.738;2022-08-24T11:34:29;31.30;47.10
67027;DHT22;53933;52.142;11.738;2022-08-24T11:36:57;31.30;47.20
67027;DHT22;53933;52.142;11.738;2022-08-24T11:39:28;31.10;47.20
67027;DHT22;53933;52.142;11.738;2022-08-24T11:41:58;31.10;46.80
67027;DHT22;53933;52.142;11.738;2022-08-24T11:44:40;31.00;46.80
67027;DHT22;53933;52.142;11.738;2022-08-24T11:47:33;30.90;47.20
67027;DHT22;53933;52.142;11.738;2022-08-24T11:50:10;30.90;47.20
67027;DHT22;53933;52.142;11.738;2022-08-24T11:52:47;30.80;47.00
67027;DHT22;53933;52.142;11.738;2022-08-24T11:55:23;30.80;46.40
67027;DHT22;53933;52.142;11.738;2022-08-24T11:57:57;30.80;46.20
67027;DHT22;53933;52.142;11.738;2022-08-24T12:00:38;30.80;46.40
67027;DHT22;53933;52.142;11.738;2022-08-24T12:03:27;30.80;46.00
67027;DHT22;53933;52.142;11.738;2022-08-24T12:05:59;30.80;45.70
67027;DHT22;53933;52.142;11.738;2022-08-24T12:08:34;30.70;46.10
67027;DHT22;53933;52.142;11.738;2022-08-24T12:11:09;30.60;46.10
67027;DHT22;53933;52.142;11.738;2022-08-24T12:13:46;30.60;44.40
67027;DHT22;53933;52.142;11.738;2022-08-24T12:16:19;30.60;45.30
67027;DHT22;53933;52.142;11.738;2022-08-24T12:18:52;30.60;45.40
67027;DHT22;53933;52.142;11.738;2022-08-24T12:21:25;30.50;45.40
67027;DHT22;53933;52.142;11.738;2022-08-24T12:23:58;30.50;46.10
67027;DHT22;53933;52.142;11.738;2022-08-24T12:26:29;30.40;46.50
67027;DHT22;53933;52.142;11.738;2022-08-24T12:29:00;30.40;47.30
67027;DHT22;53933;52.142;11.738;2022-08-24T12:31:37;30.30;46.80
67027;DHT22;53933;52.142;11.738;2022-08-24T12:34:10;30.30;45.00
67027;DHT22;53933;52.142;11.738;2022-08-24T12:36:43;30.30;45.20
67027;DHT22;53933;52.142;11.738;2022-08-24T12:39:15;30.30;45.80
67027;DHT22;53933;52.142;11.738;2022-08-24T12:41:50;30.30;45.90
67027;DHT22;53933;52.142;11.738;2022-08-24T12:44:24;30.30;46.80
67027;DHT22;53933;52.142;11.738;2022-08-24T12:46:53;30.20;46.20
67027;DHT22;53933;52.142;11.738;2022-08-24T12:49:25;30.20;45.20
67027;DHT22;53933;52.142;11.738;2022-08-24T12:52:08;30.20;45.80
67027;DHT22;53933;52.142;11.738;2022-08-24T12:54:50;30.20;45.80
67027;DHT22;53933;52.142;11.738;2022-08-24T12:57:30;30.20;45.80
67027;DHT22;53933;52.142;11.738;2022-08-24T13:00:04;30.20;46.50
67027;DHT22;53933;52.142;11.738;2022-08-24T13:02:37;30.10;46.60
67027;DHT22;53933;52.142;11.738;2022-08-24T13:05:11;30.10;46.90
67027;DHT22;53933;52.142;11.738;2022-08-24T13:07:42;30.10;46.70
67027;DHT22;53933;52.142;11.738;2022-08-24T13:10:13;30.10;46.80
67027;DHT22;53933;52.142;11.738;2022-08-24T13:13:15;30.10;46.80
67027;DHT22;53933;52.142;11.738;2022-08-24T13:15:59;30.10;46.70
67027;DHT22;53933;52.142;11.738;2022-08-24T13:19:09;30.10;47.20
67027;DHT22;53933;52.142;11.738;2022-08-24T13:21:45;30.00;46.80
67027;DHT22;53933;52.142;11.738;2022-08-24T13:24:46;30.00;47.20
67027;DHT22;53933;52.142;11.738;2022-08-24T13:27:46;30.00;47.50
67027;DHT22;53933;52.142;11.738;2022-08-24T13:33:27;29.90;48.00
67027;DHT22;53933;52.142;11.738;2022-08-24T13:35:59;29.90;47.60
67027;DHT22;53933;52.142;11.738;2022-08-24T13:38:44;29.90;47.30
67027;DHT22;53933;52.142;11.738;2022-08-24T13:41:19;29.90;47.30
67027;DHT22;53933;52.142;11.738;2022-08-24T13:43:56;29.90;47.20
67027;DHT22;53933;52.142;11.738;2022-08-24T13:46:37;29.90;47.40
67027;DHT22;53933;52.142;11.738;2022-08-24T13:49:20;29.90;47.40
67027;DHT22;53933;52.142;11.738;2022-08-24T13:51:52;29.90;47.40
67027;DHT22;53933;52.142;11.738;2022-08-24T13:54:26;29.90;47.80
67027;DHT22;53933;52.142;11.738;2022-08-24T13:57:21;29.90;47.60
67027;DHT22;53933;52.142;11.738;2022-08-24T14:03:20;29.80;48.00
67027;DHT22;53933;52.142;11.738;2022-08-24T14:05:53;29.80;47.80
67027;DHT22;53933;52.142;11.738;2022-08-24T14:08:32;29.80;47.50
67027;DHT22;53933;52.142;11.738;2022-08-24T14:11:08;29.80;47.50
67027;DHT22;53933;52.142;11.738;2022-08-24T14:13:48;29.80;47.80
67027;DHT22;53933;52.142;11.738;2022-08-24T14:16:40;29.80;47.70
67027;DHT22;53933;52.142;11.738;2022-08-24T14:19:38;29.80;47.50
67027;DHT22;53933;52.142;11.738;2022-08-24T14:22:19;29.80;47.20
67027;DHT22;53933;52.142;11.738;2022-08-24T14:24:55;29.80;47.60
67027;DHT22;53933;52.142;11.738;2022-08-24T14:27:40;29.80;48.00
67027;DHT22;53933;52.142;11.738;2022-08-24T14:33:17;29.70;48.30
67027;DHT22;53933;52.142;11.738;2022-08-24T14:36:12;29.70;48.50
67027;DHT22;53933;52.142;11.738;2022-08-24T14:38:49;29.70;48.50
67027;DHT22;53933;52.142;11.738;2022-08-24T14:41:39;29.70;48.80
67027;DHT22;53933;52.142;11.738;2022-08-24T14:44:27;29.70;48.90
67027;DHT22;53933;52.142;11.738;2022-08-24T14:47:02;29.70;49.10
67027;DHT22;53933;52.142;11.738;2022-08-24T14:49:36;29.70;49.40
67027;DHT22;53933;52.142;11.738;2022-08-24T14:52:22;29.70;49.40
67027;DHT22;53933;52.142;11.738;2022-08-24T14:55:05;29.70;49.30
67027;DHT22;53933;52.142;11.738;2022-08-24T14:57:49;29.70;49.30
67027;DHT22;53933;52.142;11.738;2022-08-24T15:00:31;29.70;49.50
67027;DHT22;53933;52.142;11.738;2022-08-24T15:03:11;29.70;49.50
67027;DHT22;53933;52.142;11.738;2022-08-24T15:06:02;29.70;49.60
67027;DHT22;53933;52.142;11.738;2022-08-24T15:08:38;29.70;49.50
67027;DHT22;53933;52.142;11.738;2022-08-24T15:11:09;29.70;49.60
67027;DHT22;53933;52.142;11.738;2022-08-24T15:13:40;29.70;49.70
67027;DHT22;53933;52.142;11.738;2022-08-24T15:16:13;29.70;49.60
67027;DHT22;53933;52.142;11.738;2022-08-24T15:18:44;29.70;49.60
67027;DHT22;53933;52.142;11.738;2022-08-24T15:21:25;29.70;49.60
67027;DHT22;53933;52.142;11.738;2022-08-24T15:24:10;29.70;49.70
67027;DHT22;53933;52.142;11.738;2022-08-24T15:26:56;29.70;49.80
67027;DHT22;53933;52.142;11.738;2022-08-24T15:29:26;29.70;49.70
67027;DHT22;53933;52.142;11.738;2022-08-24T15:31:59;29.70;49.90
67027;DHT22;53933;52.142;11.738;2022-08-24T15:34:38;29.70;49.90
67027;DHT22;53933;52.142;11.738;2022-08-24T15:37:07;29.70;49.90
67027;DHT22;53933;52.142;11.738;2022-08-24T15:39:37;29.70;50.00
67027;DHT22;53933;52.142;11.738;2022-08-24T15:42:09;29.70;50.10
67027;DHT22;53933;52.142;11.738;2022-08-24T15:44:38;29.70;50.10
67027;DHT22;53933;52.142;11.738;2022-08-24T15:47:19;29.70;49.90
67027;DHT22;53933;52.142;11.738;2022-08-24T15:49:49;29.70;50.00
67027;DHT22;53933;52.142;11.738;2022-08-24T15:52:38;29.70;49.80
67027;DHT22;53933;52.142;11.738;2022-08-24T15:55:07;29.60;49.70
67027;DHT22;53933;52.142;11.738;2022-08-24T15:57:40;29.60;49.50
67027;DHT22;53933;52.142;11.738;2022-08-24T16:00:12;29.60;49.70
67027;DHT22;53933;52.142;11.738;2022-08-24T16:02:40;29.60;49.70
67027;DHT22;53933;52.142;11.738;2022-08-24T16:05:16;29.60;49.80
67027;DHT22;53933;52.142;11.738;2022-08-24T16:08:08;29.60;49.70
67027;DHT22;53933;52.142;11.738;2022-08-24T16:10:39;29.60;49.80
67027;DHT22;53933;52.142;11.738;2022-08-24T16:13:08;29.60;49.90
67027;DHT22;53933;52.142;11.738;2022-08-24T16:15:44;29.60;49.80
67027;DHT22;53933;52.142;11.738;2022-08-24T16:18:13;29.60;49.90
67027;DHT22;53933;52.142;11.738;2022-08-24T16:20:40;29.60;49.50